Time;durP1;ratioP1;P1;durP2;ratioP2;P2;SDS_P1;SDS_P2;PMS_P1;PMS_P2;Temp;Humidity;BMP_temperature;BMP_pressure;BME280_temperature;BME280_humidity;BME280_pressure;Samples;Min_cycle;Max_cycle;Signal;HPM_P1;HPM_P2
2021/12/25 00:01:20;;;;;;;15.80;7.85;;;2.50;99.90;;;;;;4956655;29;20027;-91
2021/12/25 00:03:46;;;;;;;10.38;7.25;;;2.50;99.90;;;;;;4946403;29;20036;-92
2021/12/25 00:06:12;;;;;;;12.20;6.47;;;2.50;99.90;;;;;;4963729;29;20031;-92
2021/12/25 00:08:38;;;;;;;17.50;9.98;;;2.50;99.90;;;;;;4963953;29;20102;-92
2021/12/25 00:11:05;;;;;;;12.45;7.28;;;2.60;99.90;;;;;;4942339;29;20059;-92
2021/12/25 00:13:31;;;;;;;16.40;7.30;;;2.60;99.90;;;;;;4942282;29;20095;-93
2021/12/25 00:15:57;;;;;;;19.40;9.18;;;2.60;99.90;;;;;;4959547;29;20031;-92
2021/12/25 00:18:23;;;;;;;15.10;8.07;;;2.70;99.90;;;;;;4942711;29;20427;-92
2021/12/25 00:20:50;;;;;;;13.23;7.75;;;2.70;99.90;;;;;;4943565;29;20063;-92
2021/12/25 00:23:16;;;;;;;16.75;10.63;;;2.70;99.90;;;;;;4942152;29;20035;-91
2021/12/25 00:25:47;;;;;;;16.88;9.32;;;2.70;99.90;;;;;;4943565;29;20035;-93
2021/12/25 00:36:18;;;;;;;13.60;8.27;;;2.70;99.90;;;;;;4956667;29;20035;-93
2021/12/25 00:38:45;;;;;;;12.38;7.82;;;2.70;99.90;;;;;;4939532;29;20077;-92
2021/12/25 00:41:13;;;;;;;13.02;7.75;;;2.80;99.90;;;;;;4938948;29;20062;-93
2021/12/25 00:43:39;;;;;;;15.95;9.73;;;2.80;99.90;;;;;;4943857;29;20039;-93
2021/12/25 00:46:05;;;;;;;13.00;7.82;;;2.80;99.90;;;;;;4951125;29;20114;-93
2021/12/25 00:48:31;;;;;;;17.70;8.90;;;2.80;99.90;;;;;;4966144;28;20035;-92
2021/12/25 00:50:57;;;;;;;14.30;8.80;;;2.80;99.90;;;;;;4983237;28;20019;-93
2021/12/25 00:53:23;;;;;;;13.73;7.40;;;2.80;99.90;;;;;;4965415;29;20039;-93
2021/12/25 00:55:49;;;;;;;16.65;8.00;;;2.80;99.90;;;;;;4945119;29;20032;-93
2021/12/25 00:58:15;;;;;;;12.18;7.50;;;2.90;99.90;;;;;;4944446;29;20405;-93
2021/12/25 01:00:41;;;;;;;13.05;7.80;;;2.90;99.90;;;;;;4943099;29;20043;-93
2021/12/25 01:03:07;;;;;;;13.18;6.53;;;2.90;99.90;;;;;;4959911;29;20355;-93
2021/12/25 01:05:33;;;;;;;12.93;7.13;;;2.90;99.90;;;;;;4942420;29;20066;-93
2021/12/25 01:07:59;;;;;;;14.77;8.07;;;3.00;99.90;;;;;;4942114;29;20074;-93
2021/12/25 01:10:25;;;;;;;13.32;9.00;;;3.00;99.90;;;;;;4941964;29;20059;-93
2021/12/25 01:13:07;;;;;;;13.18;7.65;;;3.00;99.90;;;;;;4942175;29;20059;-93
2021/12/25 01:15:49;;;;;;;15.23;7.82;;;3.00;99.90;;;;;;4942657;29;20031;-93
2021/12/25 01:48:52;;;;;;;10.63;8.10;;;3.10;99.90;;;;;;4958619;29;20396;-93
2021/12/25 01:51:18;;;;;;;11.90;6.63;;;3.10;99.90;;;;;;4941471;29;20039;-93
2021/12/25 01:53:44;;;;;;;12.00;7.00;;;3.10;99.90;;;;;;4940977;29;20073;-93
2021/12/25 01:56:10;;;;;;;13.90;6.82;;;3.10;99.90;;;;;;4941258;29;20039;-93
2021/12/25 01:58:36;;;;;;;14.57;8.00;;;3.20;99.90;;;;;;4940447;29;20042;-93
2021/12/25 02:01:05;;;;;;;11.60;6.95;;;3.20;99.90;;;;;;4941305;29;20036;-93
2021/12/25 02:03:32;;;;;;;10.25;6.22;;;3.20;99.90;;;;;;4958360;29;20042;-93
2021/12/25 02:05:59;;;;;;;14.05;6.88;;;3.30;99.90;;;;;;4958006;29;20035;-93
2021/12/25 02:08:25;;;;;;;9.80;6.38;;;3.30;99.90;;;;;;4941571;29;20090;-93
2021/12/25 02:10:51;;;;;;;13.52;7.75;;;3.30;99.90;;;;;;4957630;28;20055;-93
2021/12/25 02:13:18;;;;;;;11.88;7.65;;;3.40;99.90;;;;;;4940971;29;20125;-92
2021/12/25 02:15:48;;;;;;;11.43;7.10;;;3.40;99.90;;;;;;4958116;29;20061;-93
2021/12/25 02:18:21;;;;;;;18.02;8.13;;;3.40;99.90;;;;;;4941048;29;20035;-94
2021/12/25 02:20:54;;;;;;;9.60;6.13;;;3.50;99.90;;;;;;4941337;29;20099;-93
2021/12/25 02:23:22;;;;;;;17.38;7.88;;;3.50;99.90;;;;;;4941052;29;20035;-92
2021/12/25 02:25:51;;;;;;;12.98;7.38;;;3.50;99.90;;;;;;4940836;29;20081;-93
2021/12/25 02:28:17;;;;;;;14.05;7.45;;;3.50;99.90;;;;;;4940778;29;20039;-93
2021/12/25 02:30:45;;;;;;;13.45;8.00;;;3.60;99.90;;;;;;4948535;29;20024;-92
2021/12/25 02:33:11;;;;;;;11.85;7.28;;;3.60;99.90;;;;;;4977295;29;20098;-92
2021/12/25 02:35:37;;;;;;;11.73;6.55;;;3.60;99.90;;;;;;4969353;29;20114;-93
2021/12/25 02:38:05;;;;;;;14.48;8.02;;;3.60;99.90;;;;;;4940524;29;20039;-93
2021/12/25 02:40:31;;;;;;;10.45;5.70;;;3.60;99.90;;;;;;4942224;29;20062;-93
2021/12/25 02:42:57;;;;;;;10.70;6.80;;;3.60;99.90;;;;;;4953277;29;20102;-93
2021/12/25 02:45:23;;;;;;;13.50;7.07;;;3.70;99.90;;;;;;4970993;29;20458;-93
2021/12/25 02:47:52;;;;;;;13.15;6.95;;;3.70;99.90;;;;;;4959632;29;20107;-93
2021/12/25 02:50:27;;;;;;;13.77;8.65;;;3.70;99.90;;;;;;4953636;29;20046;-93
2021/12/25 02:52:54;;;;;;;9.63;6.13;;;3.80;99.90;;;;;;4960336;29;20023;-92
2021/12/25 02:55:21;;;;;;;12.45;5.75;;;3.70;99.90;;;;;;4955954;29;20046;-93
2021/12/25 02:57:50;;;;;;;8.88;6.20;;;3.80;99.90;;;;;;4945965;29;20039;-93
2021/12/25 03:00:21;;;;;;;9.95;7.13;;;3.80;99.90;;;;;;4941024;29;20039;-93
2021/12/25 03:02:48;;;;;;;11.68;6.90;;;3.80;99.90;;;;;;4956084;28;20035;-93
2021/12/25 03:05:14;;;;;;;13.25;6.32;;;3.80;99.90;;;;;;4940031;29;20070;-93
2021/12/25 03:07:40;;;;;;;9.70;6.88;;;3.90;99.90;;;;;;4939775;29;20050;-93
2021/12/25 03:10:07;;;;;;;12.45;6.93;;;3.90;99.90;;;;;;4938814;29;20055;-93
2021/12/25 03:12:47;;;;;;;9.23;5.35;;;3.90;99.90;;;;;;4939783;29;20039;-92
2021/12/25 03:15:17;;;;;;;14.70;6.50;;;3.90;99.90;;;;;;4940211;29;20035;-93
2021/12/25 03:17:44;;;;;;;10.95;6.47;;;3.90;99.90;;;;;;4940666;29;20046;-93
2021/12/25 03:20:11;;;;;;;12.10;6.70;;;4.00;99.90;;;;;;4940726;29;20601;-92
2021/12/25 03:22:38;;;;;;;13.23;7.63;;;4.00;99.90;;;;;;4958437;29;20110;-93
2021/12/25 03:25:10;;;;;;;12.15;7.22;;;4.00;99.90;;;;;;4941542;29;20046;-93
2021/12/25 03:27:38;;;;;;;9.13;5.57;;;4.10;99.90;;;;;;4941101;29;20397;-92
2021/12/25 03:30:05;;;;;;;14.00;6.55;;;4.10;99.90;;;;;;4943443;29;20098;-93
2021/12/25 03:32:31;;;;;;;11.20;6.57;;;4.10;99.90;;;;;;4961889;29;20031;-92
2021/12/25 03:34:57;;;;;;;9.65;5.57;;;4.10;99.90;;;;;;4961400;29;20035;-92
2021/12/25 03:37:22;;;;;;;9.77;6.35;;;4.10;99.90;;;;;;4942341;29;20046;-93
2021/12/25 03:39:48;;;;;;;9.95;5.25;;;4.10;99.90;;;;;;4940895;29;20043;-93
2021/12/25 03:42:14;;;;;;;9.75;5.85;;;4.20;99.90;;;;;;4957118;29;20481;-93
2021/12/25 03:44:40;;;;;;;11.27;5.63;;;4.20;99.90;;;;;;4940160;29;20031;-93
2021/12/25 03:47:21;;;;;;;13.43;6.68;;;4.20;99.90;;;;;;4939554;29;20051;-93
2021/12/25 03:58:03;;;;;;;12.32;6.32;;;4.30;99.90;;;;;;4956342;29;20047;-93
2021/12/25 04:00:31;;;;;;;8.90;5.40;;;4.30;99.90;;;;;;4956349;29;20063;-92
2021/12/25 04:03:02;;;;;;;10.27;6.30;;;4.30;99.90;;;;;;4941253;29;20402;-94
2021/12/25 04:05:31;;;;;;;10.57;5.65;;;4.30;99.90;;;;;;4952923;29;20031;-93
2021/12/25 04:10:27;;;;;;;8.95;5.18;;;4.40;99.90;;;;;;4973449;29;20058;-93
2021/12/25 04:12:55;;;;;;;7.13;4.90;;;4.40;99.90;;;;;;4954066;29;20066;-93
2021/12/25 04:15:20;;;;;;;7.18;3.90;;;4.40;99.90;;;;;;4951427;29;20036;-93
2021/12/25 04:17:46;;;;;;;9.82;6.10;;;4.40;99.90;;;;;;4966316;29;20114;-93
2021/12/25 04:20:12;;;;;;;10.00;5.30;;;4.50;99.90;;;;;;4939790;29;20500;-93
2021/12/25 04:22:47;;;;;;;15.73;6.85;;;4.50;99.90;;;;;;4960804;29;20043;-93
2021/12/25 04:25:14;;;;;;;9.93;5.82;;;4.50;99.90;;;;;;4964588;29;20538;-93
2021/12/25 04:27:39;;;;;;;10.38;6.75;;;4.50;99.90;;;;;;4944118;29;20099;-93
2021/12/25 04:30:20;;;;;;;10.63;5.80;;;4.50;99.90;;;;;;4943189;29;20036;-93
2021/12/25 05:03:18;;;;;;;10.55;6.53;;;5.00;99.90;;;;;;4960336;29;20114;-94
2021/12/25 05:05:44;;;;;;;9.98;5.68;;;5.00;99.90;;;;;;4942893;29;20039;-94
2021/12/25 05:08:10;;;;;;;9.07;5.55;;;5.00;99.90;;;;;;4959430;29;20049;-93
2021/12/25 05:10:35;;;;;;;8.85;5.13;;;5.00;99.90;;;;;;4941534;29;20473;-94
2021/12/25 05:13:01;;;;;;;11.20;6.03;;;5.00;99.90;;;;;;4941716;29;20091;-94
2021/12/25 05:15:27;;;;;;;11.00;6.95;;;5.00;99.90;;;;;;4942111;29;20043;-94
2021/12/25 05:17:52;;;;;;;10.35;6.85;;;5.10;99.90;;;;;;4942798;29;20082;-94
2021/12/25 05:20:18;;;;;;;14.32;7.47;;;5.10;99.90;;;;;;4941758;29;20461;-94
2021/12/25 05:22:44;;;;;;;8.90;5.97;;;5.00;99.90;;;;;;4942163;29;20050;-94
2021/12/25 05:25:11;;;;;;;8.95;6.65;;;5.10;99.90;;;;;;4946045;29;20041;-94
2021/12/25 05:27:37;;;;;;;9.70;5.63;;;5.10;99.90;;;;;;4954893;29;20039;-93
2021/12/25 05:30:04;;;;;;;10.18;7.00;;;5.10;99.90;;;;;;4956102;29;20032;-94
2021/12/25 05:32:30;;;;;;;12.40;6.82;;;5.10;99.90;;;;;;4955859;29;20107;-94
2021/12/25 05:34:55;;;;;;;10.98;5.97;;;5.10;99.90;;;;;;4957949;29;20035;-95
2021/12/25 05:37:21;;;;;;;13.45;7.45;;;5.00;99.90;;;;;;4956222;29;20035;-94
2021/12/25 05:39:50;;;;;;;11.80;6.00;;;5.10;99.90;;;;;;4951541;29;20031;-94
2021/12/25 05:42:22;;;;;;;9.15;5.35;;;5.00;99.90;;;;;;4943611;29;20035;-94
2021/12/25 05:44:49;;;;;;;10.40;5.97;;;5.00;99.90;;;;;;4945307;29;20027;-94
2021/12/25 05:47:15;;;;;;;8.88;5.38;;;5.00;99.90;;;;;;4942018;29;20123;-94
2021/12/25 05:49:40;;;;;;;11.13;6.40;;;5.10;99.90;;;;;;4941747;29;20043;-94
2021/12/25 05:52:06;;;;;;;8.80;5.93;;;5.10;99.90;;;;;;4941993;29;20045;-93
2021/12/25 05:54:32;;;;;;;8.35;5.07;;;5.10;99.90;;;;;;4941717;29;20446;-94
2021/12/25 05:56:58;;;;;;;7.22;4.57;;;5.20;99.90;;;;;;4941585;29;20039;-94
2021/12/25 05:59:24;;;;;;;10.55;6.00;;;5.20;99.90;;;;;;4958834;29;20117;-94
2021/12/25 06:01:49;;;;;;;8.23;5.32;;;5.20;99.90;;;;;;4958165;28;20043;-94
2021/12/25 06:04:15;;;;;;;6.43;4.93;;;5.20;99.90;;;;;;4942205;29;20494;-94
2021/12/25 06:06:41;;;;;;;6.40;4.18;;;5.20;99.90;;;;;;4941463;29;20034;-94
2021/12/25 06:09:07;;;;;;;10.98;5.57;;;5.20;99.90;;;;;;4941079;29;20379;-94
2021/12/25 06:11:36;;;;;;;8.85;5.18;;;5.20;99.90;;;;;;4941249;29;20055;-93
2021/12/25 06:14:11;;;;;;;9.15;4.78;;;5.20;99.90;;;;;;4960830;29;20046;-94
2021/12/25 06:16:37;;;;;;;9.15;5.00;;;5.20;99.90;;;;;;4946383;29;20035;-94
2021/12/25 06:19:04;;;;;;;8.60;5.78;;;5.20;99.90;;;;;;4942695;29;20039;-93
2021/12/25 06:21:31;;;;;;;10.57;6.75;;;5.20;99.90;;;;;;4941495;29;20050;-94
2021/12/25 06:23:57;;;;;;;7.70;6.13;;;5.20;99.90;;;;;;4958728;29;20066;-94
2021/12/25 06:26:23;;;;;;;11.98;6.47;;;5.20;99.90;;;;;;4941523;29;20043;-94
2021/12/25 06:28:48;;;;;;;9.38;5.47;;;5.20;99.90;;;;;;4941067;29;20066;-94
2021/12/25 06:31:14;;;;;;;9.73;6.53;;;5.10;99.90;;;;;;4941068;29;20478;-93
2021/12/25 06:33:40;;;;;;;10.25;6.25;;;5.20;99.90;;;;;;4940845;29;20039;-94
2021/12/25 06:36:06;;;;;;;11.63;5.85;;;5.20;99.90;;;;;;4958404;29;20038;-94
2021/12/25 06:38:32;;;;;;;11.70;5.97;;;5.20;99.90;;;;;;4941779;29;20386;-93
2021/12/25 06:40:58;;;;;;;9.40;6.47;;;5.20;99.90;;;;;;4941078;29;20057;-93
2021/12/25 06:43:24;;;;;;;11.38;5.82;;;5.20;99.90;;;;;;4940908;29;20031;-93
2021/12/25 06:45:49;;;;;;;8.88;5.53;;;5.20;99.90;;;;;;4943331;29;20127;-93
2021/12/25 06:48:16;;;;;;;10.18;5.93;;;5.20;99.90;;;;;;4955701;29;20047;-93
2021/12/25 06:50:42;;;;;;;11.07;5.43;;;5.30;99.90;;;;;;4957032;29;20039;-93
2021/12/25 06:53:10;;;;;;;10.60;6.45;;;5.30;99.90;;;;;;4962865;29;20112;-93
2021/12/25 06:55:36;;;;;;;9.48;6.47;;;5.30;99.80;;;;;;4957329;29;20041;-93
2021/12/25 06:58:04;;;;;;;8.70;5.88;;;5.30;99.80;;;;;;4962298;29;20039;-93
2021/12/25 07:00:33;;;;;;;8.05;5.47;;;5.30;99.80;;;;;;4959061;29;20035;-94
2021/12/25 07:02:59;;;;;;;7.78;4.90;;;5.40;99.80;;;;;;4953148;29;20016;-94
2021/12/25 07:05:25;;;;;;;7.45;5.03;;;5.40;99.90;;;;;;4950562;29;20043;-95
2021/12/25 07:07:51;;;;;;;8.98;4.95;;;5.40;99.80;;;;;;4945812;29;20082;-94
2021/12/25 07:10:17;;;;;;;10.82;5.70;;;5.40;99.80;;;;;;4950103;29;20051;-94
2021/12/25 07:12:46;;;;;;;9.65;4.63;;;5.40;99.80;;;;;;4974758;29;20059;-93
2021/12/25 07:15:15;;;;;;;9.52;5.60;;;5.50;99.90;;;;;;4959718;29;20042;-95
2021/12/25 07:17:43;;;;;;;12.35;5.72;;;5.50;99.60;;;;;;4954466;29;20035;-94
2021/12/25 07:20:10;;;;;;;8.45;5.05;;;5.50;99.70;;;;;;4946593;29;20049;-94
2021/12/25 07:22:39;;;;;;;9.80;5.90;;;5.50;99.40;;;;;;4959754;29;20035;-96
2021/12/25 07:25:11;;;;;;;8.20;4.85;;;5.60;99.50;;;;;;4942939;29;20039;-95
2021/12/25 07:27:46;;;;;;;11.02;5.85;;;5.60;99.60;;;;;;4962113;29;20058;-96
2021/12/25 07:30:17;;;;;;;13.13;5.47;;;5.60;99.50;;;;;;4942753;29;20039;-93
2021/12/25 07:32:42;;;;;;;8.38;5.70;;;5.60;99.70;;;;;;4958911;29;20042;-94
2021/12/25 07:35:08;;;;;;;7.85;4.88;;;5.60;99.30;;;;;;4940764;29;20126;-94
2021/12/25 07:37:35;;;;;;;8.57;5.05;;;5.60;99.40;;;;;;4941564;29;20043;-95
2021/12/25 07:40:03;;;;;;;8.32;4.53;;;5.60;99.30;;;;;;4942749;29;20035;-93
2021/12/25 07:42:29;;;;;;;4.25;3.38;;;5.60;97.70;;;;;;4941871;29;20031;-92
2021/12/25 07:45:02;;;;;;;5.55;3.95;;;5.60;95.90;;;;;;4942192;29;20043;-95
2021/12/25 07:47:28;;;;;;;6.32;2.80;;;5.60;95.10;;;;;;4945096;29;20083;-94
2021/12/25 07:49:56;;;;;;;5.72;3.42;;;5.50;92.70;;;;;;4943757;29;20067;-93
2021/12/25 07:52:22;;;;;;;7.78;3.13;;;5.50;92.80;;;;;;4947446;29;20036;-91
2021/12/25 07:54:48;;;;;;;3.28;2.67;;;5.50;92.20;;;;;;4943013;28;20035;-94
2021/12/25 07:57:14;;;;;;;5.13;2.58;;;5.40;91.80;;;;;;4949603;29;20118;-94
2021/12/25 07:59:39;;;;;;;6.68;3.85;;;5.40;92.20;;;;;;4950940;29;20043;-93
2021/12/25 08:02:05;;;;;;;4.72;3.45;;;5.40;92.00;;;;;;4949459;29;20039;-95
2021/12/25 08:04:33;;;;;;;4.43;3.15;;;5.40;90.60;;;;;;4948256;29;20035;-92
2021/12/25 08:06:59;;;;;;;5.57;3.42;;;5.40;91.40;;;;;;4953970;29;20121;-94
2021/12/25 08:09:29;;;;;;;8.40;4.22;;;5.30;92.00;;;;;;4978666;28;20035;-95
2021/12/25 08:12:01;;;;;;;5.85;3.00;;;5.40;92.00;;;;;;4965521;28;20073;-95
2021/12/25 08:14:31;;;;;;;9.50;4.30;;;5.30;91.40;;;;;;4967295;29;20085;-95
2021/12/25 08:17:05;;;;;;;10.60;4.93;;;5.20;91.60;;;;;;4965174;29;20048;-95
2021/12/25 08:19:31;;;;;;;10.68;5.70;;;5.20;91.60;;;;;;4961397;29;20035;-94
2021/12/25 08:21:57;;;;;;;6.47;3.40;;;5.20;91.40;;;;;;4959311;29;20036;-95
2021/12/25 08:24:23;;;;;;;2.78;2.40;;;5.10;91.40;;;;;;4952141;29;20043;-95
2021/12/25 08:26:50;;;;;;;3.80;2.63;;;5.10;88.90;;;;;;4953486;29;20463;-95
2021/12/25 08:29:16;;;;;;;5.63;2.35;;;5.00;90.20;;;;;;4953381;29;20051;-95
2021/12/25 08:31:48;;;;;;;4.75;2.40;;;5.00;90.90;;;;;;4946154;29;20031;-90
2021/12/25 08:34:15;;;;;;;3.10;1.88;;;5.00;90.70;;;;;;4932492;29;20039;-91
2021/12/25 08:36:40;;;;;;;4.35;2.15;;;4.90;89.00;;;;;;4950545;29;20035;-91
2021/12/25 08:39:07;;;;;;;4.20;2.13;;;4.90;89.20;;;;;;4949332;29;20035;-93
2021/12/25 08:41:33;;;;;;;5.15;2.97;;;4.90;90.30;;;;;;4948962;29;20031;-91
2021/12/25 08:44:06;;;;;;;2.75;2.15;;;4.90;89.40;;;;;;4951111;29;20118;-91
2021/12/25 08:46:55;;;;;;;2.03;1.83;;;4.90;86.80;;;;;;4949454;29;20039;-91
2021/12/25 08:49:29;;;;;;;3.97;2.42;;;4.90;88.90;;;;;;4949278;29;20047;-91
2021/12/25 08:51:56;;;;;;;5.60;2.10;;;4.90;84.60;;;;;;4949110;29;20039;-92
2021/12/25 08:54:31;;;;;;;3.05;2.47;;;4.90;84.60;;;;;;4949512;29;20039;-90
2021/12/25 08:56:57;;;;;;;3.78;2.15;;;4.90;83.90;;;;;;4966655;28;20038;-89
2021/12/25 08:59:30;;;;;;;3.10;2.05;;;4.80;84.00;;;;;;4951871;29;20473;-94
2021/12/25 09:01:56;;;;;;;3.83;2.78;;;4.80;80.00;;;;;;4949741;29;20043;-90
2021/12/25 09:04:33;;;;;;;3.05;2.40;;;4.80;81.40;;;;;;4966695;29;20062;-91
2021/12/25 09:06:59;;;;;;;2.65;2.15;;;4.80;82.40;;;;;;4947632;29;20047;-91
2021/12/25 09:09:32;;;;;;;4.95;2.65;;;4.80;81.70;;;;;;4947260;29;20145;-93
2021/12/25 09:12:11;;;;;;;;;;;;;;;;;;;;;
2021/12/25 09:14:42;;;;;;;3.97;2.97;;;5.00;82.90;;;;;;4965525;29;20117;-92
2021/12/25 09:17:17;;;;;;;2.95;2.05;;;5.00;81.80;;;;;;4946978;29;20095;-93
2021/12/25 09:19:43;;;;;;;6.35;3.40;;;5.10;83.00;;;;;;4947334;29;20039;-91
2021/12/25 09:22:14;;;;;;;4.80;3.20;;;5.10;81.10;;;;;;4946455;29;20031;-92
2021/12/25 09:24:42;;;;;;;5.57;2.80;;;5.10;81.20;;;;;;4946170;29;20079;-91
2021/12/25 09:27:10;;;;;;;4.13;2.55;;;5.00;81.00;;;;;;4945919;29;20474;-90
2021/12/25 09:29:37;;;;;;;3.67;2.63;;;5.10;80.70;;;;;;4959823;29;20046;-91
2021/12/25 09:32:06;;;;;;;6.65;3.08;;;5.00;81.20;;;;;;4952236;29;20035;-88
2021/12/25 09:34:34;;;;;;;7.00;3.53;;;5.00;81.60;;;;;;4953667;29;20043;-88
2021/12/25 09:37:03;;;;;;;18.48;8.32;;;5.00;82.40;;;;;;4954025;29;20040;-88
2021/12/25 09:39:31;;;;;;;8.20;4.55;;;5.00;80.90;;;;;;4949026;29;20035;-89
2021/12/25 09:41:56;;;;;;;7.22;3.03;;;5.00;79.50;;;;;;4945462;29;20198;-89
2021/12/25 09:44:22;;;;;;;7.40;4.22;;;4.90;78.30;;;;;;4943212;29;20487;-89
2021/12/25 09:46:48;;;;;;;4.50;2.70;;;4.90;78.50;;;;;;4941158;29;20036;-88
2021/12/25 09:49:16;;;;;;;8.70;3.22;;;4.80;77.90;;;;;;4940531;29;20402;-88
2021/12/25 09:51:42;;;;;;;5.93;3.63;;;4.80;78.30;;;;;;4940862;29;20042;-89
2021/12/25 09:54:11;;;;;;;5.82;3.00;;;4.80;78.80;;;;;;4939548;29;20122;-89
2021/12/25 09:56:45;;;;;;;4.28;2.88;;;4.70;77.50;;;;;;4941102;29;20038;-89
2021/12/25 09:59:12;;;;;;;5.28;2.90;;;4.70;77.70;;;;;;4941004;29;20066;-89
2021/12/25 10:01:43;;;;;;;6.18;2.83;;;4.70;78.00;;;;;;4940257;29;20034;-89
2021/12/25 10:04:51;;;;;;;5.57;3.03;;;4.60;77.60;;;;;;4940005;29;20039;-90
2021/12/25 10:07:23;;;;;;;5.07;3.08;;;4.60;77.30;;;;;;4939989;29;20039;-89
2021/12/25 10:10:15;;;;;;;5.18;2.55;;;4.60;79.10;;;;;;4941514;29;20055;-90
2021/12/25 10:12:45;;;;;;;4.20;2.28;;;4.60;78.00;;;;;;4940455;29;20573;-89
2021/12/25 10:15:22;;;;;;;5.53;3.60;;;4.70;80.00;;;;;;4939996;29;20082;-89
2021/12/25 10:17:55;;;;;;;4.50;3.00;;;4.70;77.80;;;;;;4957830;28;20062;-88
2021/12/25 10:20:23;;;;;;;6.15;3.03;;;4.70;76.80;;;;;;4956868;29;20039;-89
2021/12/25 10:22:57;;;;;;;4.13;2.72;;;4.60;76.90;;;;;;4939972;29;20039;-89
2021/12/25 10:25:24;;;;;;;4.65;2.75;;;4.60;78.10;;;;;;4940216;29;20121;-88
2021/12/25 10:28:02;;;;;;;4.65;3.10;;;4.60;78.30;;;;;;4940534;29;20039;-89
2021/12/25 10:30:31;;;;;;;4.82;3.22;;;4.60;77.70;;;;;;4958184;29;20439;-89
2021/12/25 10:33:07;;;;;;;5.47;3.08;;;4.50;77.90;;;;;;4940601;29;20027;-88
2021/12/25 10:35:39;;;;;;;4.72;2.88;;;4.50;77.50;;;;;;4940265;29;20039;-88
2021/12/25 10:38:11;;;;;;;7.40;4.18;;;4.50;78.00;;;;;;4940314;29;20039;-88
2021/12/25 10:40:37;;;;;;;5.93;3.38;;;4.50;77.30;;;;;;4958070;29;20032;-88
2021/12/25 10:43:06;;;;;;;6.90;4.32;;;4.60;77.60;;;;;;4940746;29;20036;-87
2021/12/25 10:45:33;;;;;;;3.60;2.72;;;4.60;77.70;;;;;;4940020;29;20130;-88
2021/12/25 10:48:08;;;;;;;5.63;3.30;;;4.70;78.40;;;;;;4940586;29;20138;-88
2021/12/25 10:50:41;;;;;;;4.07;2.83;;;4.80;76.90;;;;;;4942712;29;20039;-88
2021/12/25 10:53:28;;;;;;;5.78;3.33;;;4.80;77.20;;;;;;4944886;29;20040;-89
2021/12/25 10:56:12;;;;;;;4.75;2.72;;;4.90;77.30;;;;;;4954113;28;20031;-87
2021/12/25 10:58:42;;;;;;;5.97;3.30;;;4.90;78.10;;;;;;4957825;29;20039;-88
2021/12/25 11:01:11;;;;;;;4.88;3.10;;;4.90;77.90;;;;;;4954580;29;20038;-87
2021/12/25 11:03:42;;;;;;;4.53;3.30;;;4.90;76.40;;;;;;4952332;29;20365;-90
2021/12/25 11:06:18;;;;;;;4.30;3.03;;;4.90;76.20;;;;;;4943047;29;20091;-90
2021/12/25 11:08:47;;;;;;;4.88;3.13;;;4.90;76.30;;;;;;4942467;29;20043;-90
2021/12/25 11:11:24;;;;;;;6.20;4.03;;;4.90;77.30;;;;;;4941492;29;20122;-91
2021/12/25 11:13:57;;;;;;;5.30;3.58;;;4.90;75.80;;;;;;4940138;29;20039;-92
2021/12/25 11:16:33;;;;;;;7.18;3.75;;;4.80;76.80;;;;;;4940488;29;20035;-90
2021/12/25 11:19:15;;;;;;;5.65;3.67;;;4.80;76.60;;;;;;4943014;29;20035;-89
2021/12/25 11:21:44;;;;;;;6.22;3.60;;;4.80;76.90;;;;;;4940126;29;20046;-89
2021/12/25 11:24:15;;;;;;;7.10;4.05;;;4.80;76.30;;;;;;4938990;29;20035;-89
2021/12/25 11:26:44;;;;;;;6.95;4.10;;;4.80;77.30;;;;;;4939192;29;20038;-89
2021/12/25 11:29:21;;;;;;;6.57;3.53;;;4.80;77.10;;;;;;4940252;29;20142;-91
2021/12/25 11:31:51;;;;;;;4.50;3.25;;;4.70;77.30;;;;;;4939154;29;20039;-90
2021/12/25 11:34:21;;;;;;;5.35;3.83;;;4.80;78.30;;;;;;4938915;29;20043;-88
2021/12/25 11:36:51;;;;;;;9.60;4.15;;;4.80;78.90;;;;;;4939421;29;20089;-89
2021/12/25 11:39:23;;;;;;;7.20;3.75;;;4.80;79.10;;;;;;4940894;29;20043;-89
2021/12/25 11:41:56;;;;;;;8.13;3.83;;;4.80;77.90;;;;;;4940298;29;20190;-89
2021/12/25 11:44:31;;;;;;;7.15;3.72;;;4.80;78.10;;;;;;4939405;29;20058;-89
2021/12/25 11:46:58;;;;;;;7.63;4.53;;;4.80;77.50;;;;;;4939091;29;20475;-89
2021/12/25 11:49:24;;;;;;;6.05;3.85;;;4.80;77.70;;;;;;4956183;29;20031;-89
2021/12/25 11:52:34;;;;;;;7.93;4.72;;;4.70;77.50;;;;;;4957511;29;20063;-91
2021/12/25 11:56:03;;;;;;;8.75;4.03;;;4.70;76.90;;;;;;4939687;29;20036;-91
2021/12/25 11:58:54;;;;;;;11.85;5.10;;;4.60;77.70;;;;;;4940460;29;20043;-91
2021/12/25 12:01:38;;;;;;;16.88;7.45;;;4.60;77.50;;;;;;4938436;29;20118;-88
2021/12/25 12:04:10;;;;;;;12.68;5.85;;;4.50;78.80;;;;;;4955199;29;20036;-87
2021/12/25 12:09:17;;;;;;;10.27;5.35;;;4.50;78.30;;;;;;4954836;29;20058;-88
2021/12/25 12:11:49;;;;;;;4.88;2.97;;;4.40;78.20;;;;;;4938750;29;20051;-88
2021/12/25 12:14:27;;;;;;;8.98;4.57;;;4.40;78.90;;;;;;4940035;29;20094;-87
2021/12/25 12:16:59;;;;;;;7.30;4.50;;;4.30;79.70;;;;;;4943987;29;20043;-88
2021/12/25 12:19:32;;;;;;;5.68;2.95;;;4.30;79.50;;;;;;4947299;29;20043;-88
2021/12/25 12:22:50;;;;;;;6.65;3.65;;;4.20;79.90;;;;;;4952713;29;20130;-87
2021/12/25 12:25:48;;;;;;;7.25;4.32;;;4.10;80.90;;;;;;4962338;29;20039;-88
2021/12/25 12:28:14;;;;;;;5.05;3.10;;;4.10;81.60;;;;;;4938961;29;20047;-88
2021/12/25 12:30:42;;;;;;;5.75;3.38;;;4.00;82.20;;;;;;4938398;29;20125;-88
2021/12/25 12:33:17;;;;;;;9.57;3.80;;;3.90;82.70;;;;;;4937685;29;20036;-87
2021/12/25 12:35:48;;;;;;;6.32;3.63;;;3.90;84.20;;;;;;4955439;29;20028;-86
2021/12/25 12:38:43;;;;;;;8.13;3.95;;;3.80;84.00;;;;;;4954460;29;20057;-87
2021/12/25 12:41:19;;;;;;;5.38;3.60;;;3.70;84.80;;;;;;4937591;28;20039;-89
2021/12/25 12:44:05;;;;;;;10.32;3.83;;;3.60;85.90;;;;;;4942106;29;20493;-87
2021/12/25 12:46:57;;;;;;;8.80;3.92;;;3.40;88.10;;;;;;4942453;29;20489;-90
2021/12/25 12:49:51;;;;;;;7.40;3.60;;;3.30;90.90;;;;;;4961703;29;20498;-91
2021/12/25 12:52:41;;;;;;;4.88;3.00;;;3.10;92.00;;;;;;4942050;29;20031;-91
2021/12/25 12:55:11;;;;;;;6.03;3.65;;;3.10;92.90;;;;;;4939059;29;20393;-91
2021/12/25 12:57:43;;;;;;;5.63;3.33;;;2.90;94.40;;;;;;4938519;29;20043;-88
2021/12/25 13:00:27;;;;;;;7.70;4.55;;;2.80;95.00;;;;;;4952891;29;20054;-87
2021/12/25 13:02:56;;;;;;;7.80;4.15;;;2.60;95.30;;;;;;4937830;29;20043;-88
2021/12/25 13:05:40;;;;;;;5.18;3.53;;;2.50;95.80;;;;;;4936723;29;20036;-86
2021/12/25 13:08:15;;;;;;;3.60;2.15;;;2.40;96.80;;;;;;4939188;29;20066;-85
2021/12/25 13:10:51;;;;;;;7.43;3.85;;;2.30;96.70;;;;;;4939404;29;20073;-87
2021/12/25 13:13:22;;;;;;;8.18;4.47;;;2.30;96.20;;;;;;4939798;29;20050;-85
2021/12/25 13:15:57;;;;;;;4.68;2.70;;;2.20;96.00;;;;;;4939542;29;20039;-86
2021/12/25 13:18:36;;;;;;;7.97;3.50;;;2.20;96.00;;;;;;4940753;29;20467;-86
2021/12/25 13:21:08;;;;;;;6.20;3.50;;;2.20;96.20;;;;;;4958717;29;20378;-86
2021/12/25 13:23:46;;;;;;;5.03;3.72;;;2.20;96.30;;;;;;4939863;29;20039;-86
2021/12/25 13:26:14;;;;;;;7.55;4.35;;;2.20;96.40;;;;;;4957806;28;20495;-84
2021/12/25 13:28:42;;;;;;;4.95;3.05;;;2.20;96.00;;;;;;4941383;29;20043;-85
2021/12/25 13:31:14;;;;;;;10.48;4.15;;;2.30;96.10;;;;;;4940333;29;20074;-86
2021/12/25 13:33:45;;;;;;;6.50;3.15;;;2.30;96.30;;;;;;4956592;29;20035;-84
2021/12/25 13:36:19;;;;;;;4.05;2.88;;;2.30;96.70;;;;;;4940931;29;20039;-86
2021/12/25 13:38:59;;;;;;;5.95;3.38;;;2.30;96.10;;;;;;4956688;28;20039;-85
2021/12/25 13:41:35;;;;;;;6.55;3.50;;;2.30;96.20;;;;;;4943991;29;20039;-85
2021/12/25 13:44:24;;;;;;;5.78;3.92;;;2.30;96.20;;;;;;4943553;29;20043;-85
2021/12/25 13:47:05;;;;;;;7.55;4.18;;;2.40;96.50;;;;;;4952777;29;20079;-90
2021/12/25 13:49:37;;;;;;;8.65;4.07;;;2.40;96.40;;;;;;4959625;29;20047;-87
2021/12/25 13:52:20;;;;;;;9.13;5.07;;;2.40;96.40;;;;;;4940366;29;20035;-89
2021/12/25 13:54:56;;;;;;;6.38;3.78;;;2.30;96.20;;;;;;4939520;29;20035;-87
2021/12/25 13:57:24;;;;;;;4.65;3.45;;;2.30;96.50;;;;;;4939827;29;20035;-88
2021/12/25 13:59:53;;;;;;;6.40;3.58;;;2.30;96.50;;;;;;4940115;29;20034;-87
2021/12/25 14:02:20;;;;;;;10.75;4.20;;;2.30;96.90;;;;;;4939746;29;20073;-87
2021/12/25 14:04:51;;;;;;;6.82;4.25;;;2.20;96.90;;;;;;4957311;29;20036;-87
2021/12/25 14:07:19;;;;;;;7.53;4.13;;;2.20;96.90;;;;;;4939906;29;20134;-87
2021/12/25 14:09:57;;;;;;;8.88;4.30;;;2.20;96.90;;;;;;4940092;29;20087;-87
2021/12/25 14:12:24;;;;;;;8.68;4.70;;;2.20;97.10;;;;;;4940370;29;20046;-88
2021/12/25 14:14:54;;;;;;;4.55;3.17;;;2.20;97.10;;;;;;4957120;29;20101;-87
2021/12/25 14:17:20;;;;;;;5.43;4.32;;;2.20;97.30;;;;;;4940819;29;20062;-89
2021/12/25 14:19:46;;;;;;;12.85;5.32;;;2.20;97.30;;;;;;4940795;29;20066;-88
2021/12/25 14:22:12;;;;;;;7.40;4.60;;;2.20;97.30;;;;;;4940051;29;20035;-87
2021/12/25 14:24:45;;;;;;;7.18;4.25;;;2.20;97.20;;;;;;4940175;29;20039;-89
2021/12/25 14:27:15;;;;;;;11.32;5.75;;;2.20;97.30;;;;;;4957571;29;20031;-88
2021/12/25 14:29:41;;;;;;;10.15;6.38;;;2.30;97.60;;;;;;4940282;29;20478;-88
2021/12/25 14:32:25;;;;;;;9.07;4.88;;;2.30;97.20;;;;;;4939707;29;20126;-88
2021/12/25 14:34:53;;;;;;;7.00;4.35;;;2.30;97.20;;;;;;4939764;29;20389;-88